createdAt,value
2019-03-15T00:01:10.648Z,2.17
2019-03-15T00:03:39.466Z,2.13
2019-03-15T00:06:09.532Z,2.20
2019-03-15T00:08:38.658Z,2.00
2019-03-15T00:11:08.180Z,1.98
2019-03-15T00:13:36.985Z,1.40
2019-03-15T00:16:07.056Z,1.78
2019-03-15T00:18:35.818Z,1.95
2019-03-15T00:21:05.934Z,2.24
2019-03-15T00:23:34.992Z,2.98
2019-03-15T00:26:06.689Z,1.63
2019-03-15T00:28:35.176Z,1.65
2019-03-15T00:31:05.162Z,1.82
2019-03-15T00:33:33.984Z,1.70
2019-03-15T00:36:02.996Z,1.70
2019-03-15T00:38:32.004Z,1.60
2019-03-15T00:41:00.533Z,1.50
2019-03-15T00:43:29.640Z,1.90
2019-03-15T00:45:58.597Z,2.10
2019-03-15T00:48:27.719Z,2.22
2019-03-15T00:50:56.448Z,2.90
2019-03-15T00:53:25.236Z,3.20
2019-03-15T00:55:53.751Z,2.67
2019-03-15T00:58:23.480Z,3.13
2019-03-15T01:00:51.976Z,3.17
2019-03-15T01:03:20.870Z,2.73
2019-03-15T01:05:49.978Z,2.75
2019-03-15T01:08:18.757Z,2.60
2019-03-15T01:10:47.475Z,3.90
2019-03-15T01:13:16.257Z,3.10
2019-03-15T01:15:44.752Z,3.98
2019-03-15T01:18:13.551Z,4.22
2019-03-15T01:20:42.328Z,3.60
2019-03-15T01:23:11.124Z,3.37
2019-03-15T01:25:39.921Z,3.30
2019-03-15T01:28:08.412Z,3.58
2019-03-15T01:30:37.200Z,2.87
2019-03-15T01:33:05.997Z,2.80
2019-03-15T01:35:34.489Z,2.70
2019-03-15T01:38:05.179Z,2.37
2019-03-15T01:40:33.878Z,2.37
2019-03-15T01:43:04.557Z,2.05
2019-03-15T01:45:33.755Z,1.90
2019-03-15T01:48:05.110Z,1.70
2019-03-15T01:50:33.720Z,1.67
2019-03-15T01:53:03.154Z,2.55
2019-03-15T01:55:31.965Z,1.85
2019-03-15T01:58:00.777Z,1.90
2019-03-15T02:00:34.101Z,2.70
2019-03-15T02:03:05.738Z,2.80
2019-03-15T02:05:34.543Z,3.22
2019-03-15T02:08:05.015Z,4.00
2019-03-15T02:10:33.867Z,4.20
2019-03-15T02:13:03.211Z,4.47
2019-03-15T02:15:31.721Z,3.80
2019-03-15T02:18:00.549Z,3.60
2019-03-15T02:20:29.027Z,4.20
2019-03-15T02:22:58.375Z,3.50
2019-03-15T02:25:27.470Z,3.60
2019-03-15T02:27:57.639Z,4.00
2019-03-15T02:30:26.319Z,3.67
2019-03-15T02:32:55.127Z,3.87
2019-03-15T02:35:23.776Z,2.97
2019-03-15T02:37:52.281Z,3.55
2019-03-15T02:40:20.836Z,3.53
2019-03-15T02:42:49.601Z,3.35
2019-03-15T02:45:18.293Z,2.77
2019-03-15T02:47:46.854Z,4.35
2019-03-15T02:50:15.693Z,3.42
2019-03-15T02:52:44.207Z,3.60
2019-03-15T02:55:12.941Z,3.57
2019-03-15T02:57:41.777Z,3.85
2019-03-15T03:00:18.390Z,3.37
2019-03-15T03:02:47.296Z,3.13
2019-03-15T03:05:16.093Z,3.62
2019-03-15T03:07:45.246Z,3.40
2019-03-15T03:10:13.922Z,4.03
2019-03-15T03:12:43.983Z,4.15
2019-03-15T03:15:13.173Z,4.50
2019-03-15T03:17:42.292Z,5.65
2019-03-15T03:20:11.073Z,5.22
2019-03-15T03:22:40.102Z,5.87
2019-03-15T03:25:08.777Z,6.55
2019-03-15T03:27:37.870Z,7.70
2019-03-15T03:30:08.137Z,6.42
2019-03-15T03:32:36.952Z,7.90
2019-03-15T03:35:06.385Z,5.75
2019-03-15T03:37:35.143Z,7.30
2019-03-15T03:40:04.674Z,7.07
2019-03-15T03:42:33.165Z,5.00
2019-03-15T03:45:02.048Z,5.28
2019-03-15T03:47:32.830Z,5.77
2019-03-15T03:50:01.761Z,5.47
2019-03-15T03:52:31.817Z,5.30
2019-03-15T03:55:00.675Z,4.60
2019-03-15T03:57:29.152Z,3.90
2019-03-15T03:59:57.677Z,3.90
2019-03-15T04:02:26.215Z,3.50
2019-03-15T04:04:55.713Z,2.77
2019-03-15T04:07:24.516Z,3.53
2019-03-15T04:09:53.364Z,3.37
2019-03-15T04:12:22.214Z,2.97
2019-03-15T04:14:50.723Z,2.62
2019-03-15T04:17:19.209Z,3.27
2019-03-15T04:19:47.793Z,2.70
2019-03-15T04:22:16.303Z,2.60
2019-03-15T04:24:44.839Z,2.37
2019-03-15T04:27:13.638Z,2.00
2019-03-15T04:29:42.185Z,2.00
2019-03-15T04:32:10.972Z,2.33
2019-03-15T04:34:40.059Z,2.47
2019-03-15T04:37:09.356Z,2.72
2019-03-15T04:39:38.629Z,2.52
2019-03-15T04:42:07.424Z,1.80
2019-03-15T04:44:36.229Z,2.73
2019-03-15T04:47:05.508Z,1.62
2019-03-15T04:49:34.172Z,2.20
2019-03-15T04:52:02.819Z,1.95
2019-03-15T04:54:31.346Z,1.67
2019-03-15T04:57:00.144Z,2.25
2019-03-15T04:59:28.955Z,1.27
2019-03-15T05:01:58.053Z,2.08
2019-03-15T05:04:26.836Z,2.23
2019-03-15T05:06:55.958Z,2.10
2019-03-15T05:09:24.449Z,1.80
2019-03-15T05:11:53.268Z,2.45
2019-03-15T05:14:23.042Z,2.50
2019-03-15T05:16:51.878Z,2.25
2019-03-15T05:19:20.437Z,2.33
2019-03-15T05:21:49.304Z,2.50
2019-03-15T05:24:17.787Z,2.43
2019-03-15T05:26:46.613Z,2.10
2019-03-15T05:29:15.112Z,2.53
2019-03-15T05:31:43.603Z,1.60
2019-03-15T05:34:12.378Z,2.50
2019-03-15T05:36:41.183Z,2.00
2019-03-15T05:39:09.949Z,2.35
2019-03-15T05:41:38.769Z,2.08
2019-03-15T05:44:07.452Z,1.90
2019-03-15T05:46:36.168Z,1.90
2019-03-15T05:49:07.125Z,2.14
2019-03-15T05:51:36.202Z,2.08
2019-03-15T05:54:06.917Z,1.84
2019-03-15T05:56:35.660Z,2.10
2019-03-15T05:59:05.862Z,1.82
2019-03-15T06:01:34.647Z,1.50
2019-03-15T06:04:03.313Z,1.60
2019-03-15T06:06:32.115Z,1.80
2019-03-15T06:09:04.247Z,2.00
2019-03-15T06:11:35.197Z,1.50
2019-03-15T06:14:05.561Z,1.20
2019-03-15T06:16:34.443Z,1.87
2019-03-15T06:19:03.418Z,2.00
2019-03-15T06:21:32.395Z,1.72
2019-03-15T06:24:01.372Z,2.47
2019-03-15T06:26:29.990Z,1.77
2019-03-15T06:29:01.489Z,1.60
2019-03-15T06:31:30.924Z,1.97
2019-03-15T06:34:00.352Z,1.67
2019-03-15T06:36:28.866Z,1.98
2019-03-15T06:38:57.640Z,1.60
2019-03-15T06:41:26.180Z,1.55
2019-03-15T06:43:54.996Z,1.42
2019-03-15T06:46:24.802Z,1.60
2019-03-15T06:48:53.696Z,2.00
2019-03-15T06:51:22.599Z,1.87
2019-03-15T06:53:51.694Z,1.95
2019-03-15T06:56:20.259Z,2.00
2019-03-15T06:58:49.164Z,1.87
2019-03-15T07:01:18.556Z,1.97
2019-03-15T07:03:47.136Z,1.80
2019-03-15T07:06:16.025Z,2.03
2019-03-15T07:08:44.809Z,2.43
2019-03-15T07:11:13.818Z,2.05
2019-03-15T07:13:42.397Z,1.77
2019-03-15T07:16:10.979Z,2.57
2019-03-15T07:18:40.281Z,1.98
2019-03-15T07:21:09.273Z,2.30
2019-03-15T07:23:38.469Z,1.90
2019-03-15T07:26:07.857Z,1.87
2019-03-15T07:28:36.862Z,2.40
2019-03-15T07:31:06.365Z,2.88
2019-03-15T07:33:35.239Z,2.13
2019-03-15T07:36:05.364Z,2.90
2019-03-15T07:38:34.245Z,2.63
2019-03-15T07:41:05.412Z,2.95
2019-03-15T07:43:33.972Z,3.47
2019-03-15T07:46:05.435Z,2.75
2019-03-15T07:48:34.001Z,2.62
2019-03-15T07:51:02.971Z,2.83
2019-03-15T07:53:35.261Z,2.65
2019-03-15T07:56:03.859Z,3.47
2019-03-15T07:58:33.554Z,2.60
2019-03-15T08:01:03.685Z,2.60
2019-03-15T08:03:32.560Z,2.00
2019-03-15T08:06:01.141Z,3.70
2019-03-15T08:08:29.882Z,2.67
2019-03-15T08:10:59.425Z,2.55
2019-03-15T08:13:28.440Z,2.23
2019-03-15T08:15:57.327Z,3.08
2019-03-15T08:18:26.196Z,1.80
2019-03-15T08:20:54.984Z,2.05
2019-03-15T08:23:24.897Z,2.70
2019-03-15T08:25:53.784Z,1.90
2019-03-15T08:28:23.695Z,2.40
2019-03-15T08:30:52.697Z,2.72
2019-03-15T08:33:21.335Z,2.97
2019-03-15T08:35:50.268Z,3.70
2019-03-15T08:38:18.787Z,4.20
2019-03-15T08:40:47.940Z,3.45
2019-03-15T08:43:17.451Z,3.73
2019-03-15T08:45:46.456Z,3.70
2019-03-15T08:48:15.342Z,3.40
2019-03-15T08:50:44.233Z,11.60
2019-03-15T08:53:13.017Z,4.23
2019-03-15T08:55:42.098Z,4.50
2019-03-15T08:58:15.819Z,4.15
2019-03-15T09:00:41.637Z,4.47
2019-03-15T09:03:10.228Z,3.47
2019-03-15T09:05:39.189Z,3.77
2019-03-15T09:08:08.093Z,3.80
2019-03-15T09:10:36.972Z,3.33
2019-03-15T09:13:06.384Z,3.80
2019-03-15T09:15:35.336Z,4.37
2019-03-15T09:18:04.469Z,4.55
2019-03-15T09:20:33.039Z,4.75
2019-03-15T09:23:01.726Z,5.50
2019-03-15T09:25:30.405Z,5.58
2019-03-15T09:27:59.396Z,5.97
2019-03-15T09:30:27.992Z,5.25
2019-03-15T09:32:56.565Z,5.95
2019-03-15T09:35:25.145Z,5.60
2019-03-15T09:37:54.033Z,6.53
2019-03-15T09:40:25.418Z,6.50
2019-03-15T09:42:53.361Z,6.23
2019-03-15T09:45:21.947Z,6.47
2019-03-15T09:47:51.020Z,5.30
2019-03-15T09:50:32.978Z,6.65
2019-03-15T09:52:50.660Z,7.05
2019-03-15T09:55:31.961Z,6.83
2019-03-15T09:57:49.836Z,7.22
2019-03-15T10:00:19.274Z,7.05
2019-03-15T10:02:49.658Z,6.43
2019-03-15T10:05:18.309Z,8.60
2019-03-15T10:07:47.199Z,6.20
2019-03-15T10:10:18.882Z,6.53
2019-03-15T10:12:48.104Z,6.60
2019-03-15T10:15:17.107Z,7.63
2019-03-15T10:17:45.638Z,12.23
2019-03-15T10:20:14.260Z,9.63
2019-03-15T10:22:43.352Z,7.47
2019-03-15T10:25:12.928Z,7.03
2019-03-15T10:27:43.201Z,7.72
2019-03-15T10:30:13.154Z,6.23
2019-03-15T10:32:42.093Z,5.25
2019-03-15T10:35:10.934Z,7.20
2019-03-15T10:37:39.421Z,7.37
2019-03-15T10:40:15.291Z,7.65
2019-03-15T10:42:44.123Z,5.43
2019-03-15T10:45:14.011Z,6.70
2019-03-15T10:47:43.141Z,6.03
2019-03-15T10:50:18.004Z,6.27
2019-03-15T10:52:47.085Z,7.60
2019-03-15T10:55:16.240Z,7.10
2019-03-15T10:57:45.203Z,5.42
2019-03-15T11:00:20.813Z,6.07
2019-03-15T11:02:47.802Z,6.10
2019-03-15T11:05:16.400Z,7.20
2019-03-15T11:07:45.355Z,6.75
2019-03-15T11:10:14.469Z,6.43
2019-03-15T11:12:43.359Z,6.05
2019-03-15T11:15:13.688Z,7.67
2019-03-15T11:17:42.587Z,5.93
2019-03-15T11:20:11.979Z,7.33
2019-03-15T11:22:40.860Z,6.28
2019-03-15T11:25:11.206Z,7.27
2019-03-15T11:27:39.882Z,7.08
2019-03-15T11:30:10.776Z,6.70
2019-03-15T11:32:39.593Z,5.30
2019-03-15T11:35:08.887Z,7.30
2019-03-15T11:37:38.106Z,7.35
2019-03-15T11:40:08.532Z,6.92
2019-03-15T11:42:37.400Z,6.70
2019-03-15T11:45:07.836Z,6.08
2019-03-15T11:48:00.712Z,6.40
2019-03-15T11:50:11.345Z,5.78
2019-03-15T11:52:40.346Z,5.20
2019-03-15T11:55:09.626Z,5.47
2019-03-15T11:57:38.473Z,5.83
2019-03-15T12:00:19.337Z,5.33
2019-03-15T12:02:49.299Z,6.08
2019-03-15T12:05:17.888Z,5.80
2019-03-15T12:07:46.792Z,8.20
2019-03-15T12:10:16.194Z,8.00
2019-03-15T12:12:45.391Z,5.80
2019-03-15T12:15:15.389Z,5.78
2019-03-15T12:17:44.274Z,5.60
2019-03-15T12:20:14.534Z,4.22
2019-03-15T12:22:43.726Z,4.33
2019-03-15T12:25:12.475Z,4.67
2019-03-15T12:27:42.192Z,4.22
2019-03-15T12:30:12.324Z,4.53
2019-03-15T12:32:40.988Z,4.17
2019-03-15T12:35:10.591Z,4.93
2019-03-15T12:37:39.483Z,3.70
2019-03-15T12:40:11.648Z,4.08
2019-03-15T12:42:40.765Z,4.30
2019-03-15T12:45:10.267Z,3.50
2019-03-15T12:47:38.831Z,3.95
2019-03-15T12:50:11.719Z,4.53
2019-03-15T12:52:47.752Z,4.28
2019-03-15T12:55:11.428Z,4.90
2019-03-15T12:57:40.015Z,5.37
2019-03-15T13:00:22.569Z,5.47
2019-03-15T13:02:50.824Z,4.57
2019-03-15T13:05:19.433Z,3.80
2019-03-15T13:07:47.958Z,6.20
2019-03-15T13:10:18.100Z,5.07
2019-03-15T13:12:47.052Z,4.75
2019-03-15T13:15:17.114Z,5.87
2019-03-15T13:17:46.351Z,4.85
2019-03-15T13:20:15.678Z,4.90
2019-03-15T13:22:44.946Z,5.05
2019-03-15T13:25:14.442Z,4.03
2019-03-15T13:27:43.533Z,4.37
2019-03-15T13:30:18.538Z,4.43
2019-03-15T13:32:47.798Z,4.53
2019-03-15T13:35:17.340Z,4.83
2019-03-15T13:37:47.828Z,4.13
2019-03-15T13:40:17.306Z,3.17
2019-03-15T13:42:46.864Z,3.57
2019-03-15T13:45:16.906Z,3.83
2019-03-15T13:47:46.446Z,4.70
2019-03-15T13:50:16.378Z,4.10
2019-03-15T13:52:45.474Z,3.60
2019-03-15T13:55:25.700Z,3.27
2019-03-15T13:57:55.202Z,3.43
2019-03-15T14:00:26.648Z,3.30
2019-03-15T14:02:57.380Z,2.70
2019-03-15T14:05:26.579Z,2.60
2019-03-15T14:07:55.733Z,2.40
2019-03-15T14:10:24.325Z,2.90
2019-03-15T14:12:52.876Z,3.90
2019-03-15T14:15:21.762Z,2.62
2019-03-15T14:17:50.453Z,2.77
2019-03-15T14:20:18.936Z,3.20
2019-03-15T14:22:47.530Z,3.87
2019-03-15T14:25:24.552Z,4.30
2019-03-15T14:32:49.207Z,3.87
2019-03-15T14:35:18.100Z,3.60
2019-03-15T14:37:47.129Z,4.47
2019-03-15T14:40:16.323Z,4.27
2019-03-15T14:42:45.196Z,4.72
2019-03-15T14:45:14.498Z,4.97
2019-03-15T14:47:44.259Z,5.97
2019-03-15T14:50:13.760Z,5.20
2019-03-15T14:52:42.343Z,6.12
2019-03-15T14:55:11.506Z,6.70
2019-03-15T14:57:52.128Z,5.37
2019-03-15T15:00:16.239Z,5.33
2019-03-15T15:02:45.756Z,5.50
2019-03-15T15:05:14.499Z,5.83
2019-03-15T15:07:43.699Z,6.60
2019-03-15T15:10:18.466Z,5.80
2019-03-15T15:12:47.754Z,5.42
2019-03-15T15:15:18.252Z,5.97
2019-03-15T15:17:47.039Z,5.87
2019-03-15T15:20:16.861Z,6.20
2019-03-15T15:22:45.663Z,5.72
2019-03-15T15:25:17.626Z,5.28
2019-03-15T15:27:46.396Z,5.73
2019-03-15T15:30:15.819Z,6.12
2019-03-15T15:32:44.772Z,5.53
2019-03-15T15:35:14.583Z,5.40
2019-03-15T15:37:44.944Z,5.43
2019-03-15T15:40:17.487Z,5.27
2019-03-15T15:42:47.158Z,5.72
2019-03-15T15:45:17.440Z,5.37
2019-03-15T15:47:46.303Z,6.53
2019-03-15T15:50:15.285Z,5.90
2019-03-15T15:52:44.102Z,5.75
2019-03-15T15:55:13.587Z,5.53
2019-03-15T15:57:42.416Z,5.42
2019-03-15T16:00:17.757Z,6.10
2019-03-15T16:02:46.828Z,5.50
2019-03-15T16:05:15.513Z,5.40
2019-03-15T16:07:44.682Z,4.83
2019-03-15T16:10:17.432Z,4.97
2019-03-15T16:12:45.249Z,4.72
2019-03-15T16:15:14.962Z,5.00
2019-03-15T16:17:45.718Z,5.80
2019-03-15T16:20:16.116Z,5.77
2019-03-15T16:22:45.302Z,4.80
2019-03-15T16:25:13.922Z,4.87
2019-03-15T16:27:44.300Z,4.60
2019-03-15T16:30:14.322Z,5.53
2019-03-15T16:32:43.419Z,8.57
2019-03-15T16:35:12.547Z,7.80
2019-03-15T16:37:41.757Z,4.73
2019-03-15T16:40:11.841Z,6.10
2019-03-15T16:42:41.134Z,5.80
2019-03-15T16:45:17.601Z,4.55
2019-03-15T16:47:47.928Z,5.57
2019-03-15T16:50:17.343Z,4.97
2019-03-15T16:52:47.445Z,7.37
2019-03-15T16:55:16.437Z,5.70
2019-03-15T16:57:45.006Z,4.28
2019-03-15T17:00:17.316Z,5.27
2019-03-15T17:02:47.412Z,7.17
2019-03-15T17:05:16.173Z,6.87
2019-03-15T17:07:45.077Z,4.53
2019-03-15T17:10:17.323Z,6.50
2019-03-15T17:12:46.220Z,6.37
2019-03-15T17:15:16.354Z,4.60
2019-03-15T17:17:45.758Z,5.08
2019-03-15T17:20:14.940Z,5.83
2019-03-15T17:22:43.740Z,4.03
2019-03-15T17:25:12.509Z,5.07
2019-03-15T17:27:41.132Z,4.78
2019-03-15T17:30:10.985Z,6.13
2019-03-15T17:32:39.909Z,3.20
2019-03-15T17:35:09.910Z,3.65
2019-03-15T17:37:39.568Z,3.80
2019-03-15T17:40:15.015Z,3.72
2019-03-15T17:42:44.975Z,3.67
2019-03-15T17:45:13.721Z,4.10
2019-03-15T17:47:42.334Z,3.70
2019-03-15T17:50:12.266Z,4.78
2019-03-15T17:52:41.878Z,4.15
2019-03-15T17:55:10.748Z,3.38
2019-03-15T17:57:39.451Z,4.40
2019-03-15T18:00:25.750Z,4.40
2019-03-15T18:02:55.955Z,3.08
2019-03-15T18:05:24.632Z,3.73
2019-03-15T18:07:54.531Z,4.25
2019-03-15T18:10:23.332Z,4.00
2019-03-15T18:12:52.745Z,4.22
2019-03-15T18:15:22.003Z,3.70
2019-03-15T18:17:50.823Z,4.35
2019-03-15T18:20:21.965Z,6.53
2019-03-15T18:22:50.548Z,6.40
2019-03-15T18:25:19.539Z,2.50
2019-03-15T18:27:49.060Z,4.05
2019-03-15T18:30:17.845Z,2.53
2019-03-15T18:32:46.429Z,4.37
2019-03-15T18:35:16.237Z,2.47
2019-03-15T18:37:46.458Z,2.90
2019-03-15T18:40:16.244Z,2.63
2019-03-15T18:42:45.348Z,2.85
2019-03-15T18:45:15.771Z,2.45
2019-03-15T18:47:44.953Z,2.80
2019-03-15T18:50:17.756Z,2.73
2019-03-15T18:52:46.451Z,2.40
2019-03-15T18:55:15.352Z,2.50
2019-03-15T18:57:43.915Z,2.80
2019-03-15T19:00:24.840Z,3.40
2019-03-15T19:02:55.922Z,2.92
2019-03-15T19:05:24.706Z,3.70
2019-03-15T19:07:55.535Z,3.47
2019-03-15T19:10:24.400Z,2.90
2019-03-15T19:12:53.552Z,4.55
2019-03-15T19:15:22.721Z,2.58
2019-03-15T19:17:55.831Z,3.35
2019-03-15T19:20:24.900Z,3.72
2019-03-15T19:22:56.089Z,3.20
2019-03-15T19:25:25.330Z,4.30
2019-03-15T19:27:54.862Z,3.92
2019-03-15T19:30:29.574Z,3.80
2019-03-15T19:32:59.502Z,4.33
2019-03-15T19:38:23.923Z,3.33
2019-03-15T19:40:52.713Z,3.47
2019-03-15T19:43:24.141Z,3.70
2019-03-15T19:45:54.448Z,3.50
2019-03-15T19:48:24.998Z,3.47
2019-03-15T19:50:53.890Z,3.33
2019-03-15T19:53:22.790Z,4.20
2019-03-15T19:55:52.884Z,3.72
2019-03-15T19:58:21.471Z,3.97
2019-03-15T20:00:50.528Z,4.22
2019-03-15T20:03:26.036Z,3.83
2019-03-15T20:05:59.398Z,4.10
2019-03-15T20:08:28.472Z,3.35
2019-03-15T20:10:57.066Z,3.27
2019-03-15T20:13:26.287Z,3.92
2019-03-15T20:15:55.056Z,3.85
2019-03-15T20:18:23.931Z,3.50
2019-03-15T20:20:53.043Z,4.75
2019-03-15T20:23:21.812Z,3.73
2019-03-15T20:25:50.393Z,3.80
2019-03-15T20:28:20.742Z,3.67
2019-03-15T20:30:52.202Z,3.60
2019-03-15T20:33:23.890Z,4.28
2019-03-15T20:35:52.643Z,4.33
2019-03-15T20:38:21.496Z,3.33
2019-03-15T20:40:51.718Z,3.67
2019-03-15T20:43:20.301Z,4.47
2019-03-15T20:45:48.786Z,3.50
2019-03-15T20:48:17.683Z,3.45
2019-03-15T20:50:48.484Z,3.63
2019-03-15T20:53:17.393Z,3.95
2019-03-15T20:55:46.576Z,3.83
2019-03-15T20:58:15.781Z,4.67
2019-03-15T21:00:44.465Z,4.55
2019-03-15T21:03:13.665Z,4.08
2019-03-15T21:05:42.549Z,4.97
2019-03-15T21:08:11.336Z,4.50
2019-03-15T21:10:39.920Z,3.98
2019-03-15T21:13:08.804Z,3.77
2019-03-15T21:15:37.721Z,2.90
2019-03-15T21:18:06.284Z,3.00
2019-03-15T21:20:34.855Z,3.17
2019-03-15T21:23:05.338Z,3.17
2019-03-15T21:25:34.394Z,3.67
2019-03-15T21:28:02.932Z,3.55
2019-03-15T21:30:32.984Z,2.90
2019-03-15T21:33:02.054Z,3.72
2019-03-15T21:35:31.044Z,3.33
2019-03-15T21:37:59.548Z,4.20
2019-03-15T21:40:28.039Z,3.17
2019-03-15T21:42:56.587Z,2.85
2019-03-15T21:45:25.080Z,3.00
2019-03-15T21:47:54.177Z,3.20
2019-03-15T21:50:23.225Z,3.70
2019-03-15T21:52:51.728Z,3.67
2019-03-15T21:55:20.248Z,3.20
2019-03-15T21:57:51.074Z,3.25
2019-03-15T22:00:31.245Z,4.33
2019-03-15T22:02:59.768Z,3.47
2019-03-15T22:05:28.345Z,3.27
2019-03-15T22:07:56.837Z,3.27
2019-03-15T22:10:25.806Z,3.70
2019-03-15T22:12:54.352Z,3.27
2019-03-15T22:15:22.960Z,3.50
2019-03-15T22:17:51.629Z,3.55
2019-03-15T22:20:20.273Z,3.20
2019-03-15T22:22:49.064Z,2.90
2019-03-15T22:25:17.592Z,3.60
2019-03-15T22:27:49.914Z,2.42
2019-03-15T22:30:17.102Z,3.50
2019-03-15T22:32:45.892Z,2.93
2019-03-15T22:35:14.373Z,2.50
2019-03-15T22:37:43.503Z,2.70
2019-03-15T22:40:12.596Z,3.27
2019-03-15T22:42:41.077Z,2.42
2019-03-15T22:45:10.610Z,2.90
2019-03-15T22:47:39.142Z,2.65
2019-03-15T22:50:08.568Z,3.23
2019-03-15T22:52:37.695Z,3.02
2019-03-15T22:55:07.380Z,3.12
2019-03-15T22:57:37.381Z,2.63
2019-03-15T23:00:07.858Z,2.60
2019-03-15T23:02:39.000Z,2.70
2019-03-15T23:05:08.828Z,2.55
2019-03-15T23:07:37.341Z,3.27
2019-03-15T23:10:08.100Z,2.94
2019-03-15T23:12:36.579Z,2.50
2019-03-15T23:15:08.196Z,2.90
2019-03-15T23:17:36.703Z,3.08
2019-03-15T23:20:07.481Z,2.76
2019-03-15T23:22:35.993Z,2.37
2019-03-15T23:25:06.055Z,2.87
2019-03-15T23:27:34.831Z,2.23
2019-03-15T23:30:04.182Z,2.47
2019-03-15T23:32:32.664Z,2.25
2019-03-15T23:35:02.694Z,2.20
2019-03-15T23:37:31.319Z,2.27
2019-03-15T23:40:00.186Z,2.77
2019-03-15T23:42:28.992Z,2.35
2019-03-15T23:44:57.506Z,2.50
2019-03-15T23:47:26.927Z,2.10
2019-03-15T23:49:55.699Z,2.10
2019-03-15T23:52:24.257Z,2.13
2019-03-15T23:54:52.765Z,2.37
2019-03-15T23:57:21.709Z,2.62
2019-03-15T23:59:50.780Z,2.20
